sensor_id;sensor_type;location;lat;lon;timestamp;pressure;altitude;pressure_sealevel;temperature;humidity
59493;BME280;45497;43.996;22.876;2023-02-20T00:01:48;101480.72;;;13.34;43.47
59493;BME280;45497;43.996;22.876;2023-02-20T00:04:14;101480.41;;;13.37;43.53
59493;BME280;45497;43.996;22.876;2023-02-20T00:06:40;101473.22;;;13.21;43.59
59493;BME280;45497;43.996;22.876;2023-02-20T00:09:05;101474.59;;;13.33;43.24
59493;BME280;45497;43.996;22.876;2023-02-20T00:11:30;101473.75;;;13.33;43.19
59493;BME280;45497;43.996;22.876;2023-02-20T00:13:56;101470.94;;;13.34;43.12
59493;BME280;45497;43.996;22.876;2023-02-20T00:16:21;101488.88;;;13.32;43.46
59493;BME280;45497;43.996;22.876;2023-02-20T00:18:47;101490.19;;;13.28;43.33
59493;BME280;45497;43.996;22.876;2023-02-20T00:21:12;101498.53;;;13.42;43.09
59493;BME280;45497;43.996;22.876;2023-02-20T00:23:38;101505.03;;;13.39;43.24
59493;BME280;45497;43.996;22.876;2023-02-20T00:26:07;101500.19;;;13.51;43.10
59493;BME280;45497;43.996;22.876;2023-02-20T00:28:33;101493.34;;;13.48;43.12
59493;BME280;45497;43.996;22.876;2023-02-20T00:30:58;101508.31;;;13.66;42.78
59493;BME280;45497;43.996;22.876;2023-02-20T00:33:24;101519.94;;;13.73;43.09
59493;BME280;45497;43.996;22.876;2023-02-20T00:35:49;101514.16;;;13.53;43.62
59493;BME280;45497;43.996;22.876;2023-02-20T00:38:15;101519.16;;;13.56;43.99
59493;BME280;45497;43.996;22.876;2023-02-20T00:40:41;101512.34;;;13.45;44.10
59493;BME280;45497;43.996;22.876;2023-02-20T00:43:06;101514.50;;;13.50;44.11
59493;BME280;45497;43.996;22.876;2023-02-20T00:45:32;101508.38;;;13.33;44.37
59493;BME280;45497;43.996;22.876;2023-02-20T00:47:57;101506.69;;;13.32;44.18
59493;BME280;45497;43.996;22.876;2023-02-20T00:50:23;101502.03;;;13.34;44.25
59493;BME280;45497;43.996;22.876;2023-02-20T00:52:48;101501.38;;;13.24;44.37
59493;BME280;45497;43.996;22.876;2023-02-20T00:55:14;101508.16;;;13.18;44.37
59493;BME280;45497;43.996;22.876;2023-02-20T00:57:39;101496.53;;;13.19;44.37
59493;BME280;45497;43.996;22.876;2023-02-20T01:00:07;101506.69;;;13.15;44.43
59493;BME280;45497;43.996;22.876;2023-02-20T01:02:33;101499.22;;;13.11;44.51
59493;BME280;45497;43.996;22.876;2023-02-20T01:04:59;101499.88;;;13.13;44.59
59493;BME280;45497;43.996;22.876;2023-02-20T01:07:24;101517.16;;;13.09;44.52
59493;BME280;45497;43.996;22.876;2023-02-20T01:09:49;101518.53;;;12.96;44.48
59493;BME280;45497;43.996;22.876;2023-02-20T01:12:15;101519.66;;;12.94;44.84
59493;BME280;45497;43.996;22.876;2023-02-20T01:14:41;101541.13;;;12.92;45.04
59493;BME280;45497;43.996;22.876;2023-02-20T01:17:06;101536.31;;;12.88;44.91
59493;BME280;45497;43.996;22.876;2023-02-20T01:19:32;101552.28;;;12.88;44.88
59493;BME280;45497;43.996;22.876;2023-02-20T01:21:57;101559.09;;;12.82;44.91
59493;BME280;45497;43.996;22.876;2023-02-20T01:24:24;101560.88;;;12.81;45.20
59493;BME280;45497;43.996;22.876;2023-02-20T01:26:49;101548.25;;;12.75;45.01
59493;BME280;45497;43.996;22.876;2023-02-20T01:29:16;101552.91;;;12.81;45.26
59493;BME280;45497;43.996;22.876;2023-02-20T01:31:49;101545.94;;;12.80;44.82
59493;BME280;45497;43.996;22.876;2023-02-20T01:34:16;101532.78;;;12.87;44.92
59493;BME280;45497;43.996;22.876;2023-02-20T01:36:49;101523.31;;;12.85;44.96
59493;BME280;45497;43.996;22.876;2023-02-20T01:39:20;101535.28;;;12.72;44.96
59493;BME280;45497;43.996;22.876;2023-02-20T01:41:47;101532.06;;;12.52;45.41
59493;BME280;45497;43.996;22.876;2023-02-20T01:44:19;101556.41;;;12.23;46.11
59493;BME280;45497;43.996;22.876;2023-02-20T01:46:50;101549.00;;;11.74;46.95
59493;BME280;45497;43.996;22.876;2023-02-20T01:49:22;101566.44;;;11.77;47.21
59493;BME280;45497;43.996;22.876;2023-02-20T01:51:54;101559.31;;;11.77;47.26
59493;BME280;45497;43.996;22.876;2023-02-20T01:54:23;101547.41;;;11.81;47.16
59493;BME280;45497;43.996;22.876;2023-02-20T01:56:51;101536.25;;;11.78;47.33
59493;BME280;45497;43.996;22.876;2023-02-20T01:59:19;101531.78;;;11.86;47.34
59493;BME280;45497;43.996;22.876;2023-02-20T02:01:47;101517.09;;;11.92;47.11
59493;BME280;45497;43.996;22.876;2023-02-20T02:04:13;101502.22;;;11.81;47.50
59493;BME280;45497;43.996;22.876;2023-02-20T02:06:41;101511.09;;;11.90;47.29
59493;BME280;45497;43.996;22.876;2023-02-20T02:09:28;101522.22;;;11.94;47.09
59493;BME280;45497;43.996;22.876;2023-02-20T02:11:57;101515.47;;;11.99;47.04
59493;BME280;45497;43.996;22.876;2023-02-20T02:14:22;101515.13;;;12.02;47.05
59493;BME280;45497;43.996;22.876;2023-02-20T02:17:24;101518.16;;;11.81;47.17
59493;BME280;45497;43.996;22.876;2023-02-20T02:25:20;101542.50;;;11.69;47.12
59493;BME280;45497;43.996;22.876;2023-02-20T02:36:50;101590.78;;;11.90;46.03
59493;BME280;45497;43.996;22.876;2023-02-20T02:42:35;101593.91;;;11.85;45.38
59493;BME280;45497;43.996;22.876;2023-02-20T02:45:14;101592.63;;;11.72;44.91
59493;BME280;45497;43.996;22.876;2023-02-20T02:47:49;101603.03;;;11.39;44.80
59493;BME280;45497;43.996;22.876;2023-02-20T02:50:24;101609.25;;;11.29;44.88
59493;BME280;45497;43.996;22.876;2023-02-20T02:52:51;101602.34;;;11.01;45.62
59493;BME280;45497;43.996;22.876;2023-02-20T02:55:25;101590.53;;;10.95;45.58
59493;BME280;45497;43.996;22.876;2023-02-20T02:57:51;101601.34;;;11.20;45.16
59493;BME280;45497;43.996;22.876;2023-02-20T03:05:24;101600.97;;;10.79;46.22
59493;BME280;45497;43.996;22.876;2023-02-20T03:07:54;101608.72;;;10.90;45.93
59493;BME280;45497;43.996;22.876;2023-02-20T03:10:22;101623.03;;;10.79;46.80
59493;BME280;45497;43.996;22.876;2023-02-20T03:12:58;101633.25;;;10.92;46.82
59493;BME280;45497;43.996;22.876;2023-02-20T03:15:29;101610.19;;;10.75;47.19
59493;BME280;45497;43.996;22.876;2023-02-20T03:20:50;101640.00;;;10.86;46.61
59493;BME280;45497;43.996;22.876;2023-02-20T03:23:28;101638.28;;;10.95;46.28
59493;BME280;45497;43.996;22.876;2023-02-20T03:26:05;101648.53;;;11.08;45.96
59493;BME280;45497;43.996;22.876;2023-02-20T03:28:41;101635.84;;;11.20;45.36
59493;BME280;45497;43.996;22.876;2023-02-20T03:31:23;101654.00;;;11.24;45.00
59493;BME280;45497;43.996;22.876;2023-02-20T03:34:18;101649.06;;;11.29;44.30
59493;BME280;45497;43.996;22.876;2023-02-20T03:37:14;101672.44;;;11.26;44.09
59493;BME280;45497;43.996;22.876;2023-02-20T03:40:04;101673.53;;;11.23;43.85
59493;BME280;45497;43.996;22.876;2023-02-20T03:42:53;101687.88;;;11.13;43.91
59493;BME280;45497;43.996;22.876;2023-02-20T03:45:41;101687.88;;;11.13;43.30
59493;BME280;45497;43.996;22.876;2023-02-20T03:48:13;101684.31;;;11.04;43.65
59493;BME280;45497;43.996;22.876;2023-02-20T03:50:40;101678.56;;;10.81;43.67
59493;BME280;45497;43.996;22.876;2023-02-20T03:53:06;101685.53;;;10.54;43.72
59493;BME280;45497;43.996;22.876;2023-02-20T03:55:31;101696.53;;;10.59;43.60
59493;BME280;45497;43.996;22.876;2023-02-20T03:58:00;101679.31;;;10.26;44.54
59493;BME280;45497;43.996;22.876;2023-02-20T04:00:32;101673.34;;;10.33;44.41
59493;BME280;45497;43.996;22.876;2023-02-20T04:03:09;101694.22;;;10.37;44.61
59493;BME280;45497;43.996;22.876;2023-02-20T04:05:39;101692.03;;;10.32;44.94
59493;BME280;45497;43.996;22.876;2023-02-20T04:08:37;101691.97;;;10.51;44.20
59493;BME280;45497;43.996;22.876;2023-02-20T04:11:16;101691.13;;;10.51;44.30
59493;BME280;45497;43.996;22.876;2023-02-20T04:13:46;101700.28;;;10.66;43.98
59493;BME280;45497;43.996;22.876;2023-02-20T04:16:13;101705.50;;;10.86;43.68
59493;BME280;45497;43.996;22.876;2023-02-20T04:18:38;101706.31;;;10.86;43.33
59493;BME280;45497;43.996;22.876;2023-02-20T04:21:10;101713.53;;;10.66;43.58
59493;BME280;45497;43.996;22.876;2023-02-20T04:23:42;101716.72;;;10.70;43.53
59493;BME280;45497;43.996;22.876;2023-02-20T04:26:16;101730.72;;;10.90;43.31
59493;BME280;45497;43.996;22.876;2023-02-20T04:28:43;101733.09;;;10.56;43.39
59493;BME280;45497;43.996;22.876;2023-02-20T04:31:13;101734.72;;;10.19;44.54
59493;BME280;45497;43.996;22.876;2023-02-20T04:33:40;101757.03;;;10.07;44.78
59493;BME280;45497;43.996;22.876;2023-02-20T04:36:05;101748.50;;;10.23;44.36
59493;BME280;45497;43.996;22.876;2023-02-20T04:38:31;101763.31;;;10.16;44.49
59493;BME280;45497;43.996;22.876;2023-02-20T04:40:56;101751.72;;;10.36;43.87
59493;BME280;45497;43.996;22.876;2023-02-20T04:43:22;101768.47;;;10.07;44.54
59493;BME280;45497;43.996;22.876;2023-02-20T04:45:47;101769.03;;;9.82;45.34
59493;BME280;45497;43.996;22.876;2023-02-20T04:48:13;101759.81;;;9.86;45.00
59493;BME280;45497;43.996;22.876;2023-02-20T04:50:38;101761.66;;;10.05;44.70
59493;BME280;45497;43.996;22.876;2023-02-20T04:53:05;101767.34;;;10.00;44.16
59493;BME280;45497;43.996;22.876;2023-02-20T04:55:31;101779.44;;;10.22;44.34
59493;BME280;45497;43.996;22.876;2023-02-20T04:57:56;101773.06;;;10.25;44.20
59493;BME280;45497;43.996;22.876;2023-02-20T05:00:23;101775.16;;;10.31;43.78
59493;BME280;45497;43.996;22.876;2023-02-20T05:02:50;101774.06;;;10.33;43.43
59493;BME280;45497;43.996;22.876;2023-02-20T05:05:20;101776.25;;;10.19;43.95
59493;BME280;45497;43.996;22.876;2023-02-20T05:07:46;101775.69;;;10.35;43.47
59493;BME280;45497;43.996;22.876;2023-02-20T05:10:16;101777.63;;;10.42;42.95
59493;BME280;45497;43.996;22.876;2023-02-20T05:12:42;101785.22;;;10.37;43.37
59493;BME280;45497;43.996;22.876;2023-02-20T05:15:08;101784.50;;;10.16;43.07
59493;BME280;45497;43.996;22.876;2023-02-20T05:17:34;101780.59;;;10.00;42.97
59493;BME280;45497;43.996;22.876;2023-02-20T05:19:59;101784.75;;;10.03;43.29
59493;BME280;45497;43.996;22.876;2023-02-20T05:22:24;101790.06;;;10.03;43.22
59493;BME280;45497;43.996;22.876;2023-02-20T05:24:52;101802.75;;;10.19;42.68
59493;BME280;45497;43.996;22.876;2023-02-20T05:27:20;101795.94;;;10.36;42.94
59493;BME280;45497;43.996;22.876;2023-02-20T05:29:48;101799.94;;;10.49;42.17
59493;BME280;45497;43.996;22.876;2023-02-20T05:32:15;101821.41;;;10.66;42.19
59493;BME280;45497;43.996;22.876;2023-02-20T05:34:42;101805.63;;;10.74;43.18
59493;BME280;45497;43.996;22.876;2023-02-20T05:37:08;101818.16;;;10.82;43.23
59493;BME280;45497;43.996;22.876;2023-02-20T05:39:33;101827.09;;;10.81;43.41
59493;BME280;45497;43.996;22.876;2023-02-20T05:41:59;101825.00;;;10.75;42.34
59493;BME280;45497;43.996;22.876;2023-02-20T05:44:24;101827.34;;;10.87;43.37
59493;BME280;45497;43.996;22.876;2023-02-20T05:46:50;101825.94;;;10.93;43.23
59493;BME280;45497;43.996;22.876;2023-02-20T05:49:16;101825.78;;;10.95;42.54
59493;BME280;45497;43.996;22.876;2023-02-20T05:51:42;101828.09;;;10.70;42.42
59493;BME280;45497;43.996;22.876;2023-02-20T05:54:07;101827.69;;;10.55;43.02
59493;BME280;45497;43.996;22.876;2023-02-20T05:56:33;101823.97;;;10.38;42.97
59493;BME280;45497;43.996;22.876;2023-02-20T05:58:58;101830.25;;;10.18;43.10
59493;BME280;45497;43.996;22.876;2023-02-20T06:01:26;101829.09;;;10.01;43.07
59493;BME280;45497;43.996;22.876;2023-02-20T06:03:52;101837.75;;;9.93;43.04
59493;BME280;45497;43.996;22.876;2023-02-20T06:06:18;101836.19;;;9.81;42.96
59493;BME280;45497;43.996;22.876;2023-02-20T06:08:45;101830.94;;;9.90;42.83
59493;BME280;45497;43.996;22.876;2023-02-20T06:11:11;101847.69;;;9.50;43.90
59493;BME280;45497;43.996;22.876;2023-02-20T06:13:42;101855.81;;;9.59;43.62
59493;BME280;45497;43.996;22.876;2023-02-20T06:16:08;101857.00;;;9.35;44.34
59493;BME280;45497;43.996;22.876;2023-02-20T06:18:38;101864.94;;;9.45;44.41
59493;BME280;45497;43.996;22.876;2023-02-20T06:21:09;101877.59;;;9.31;44.15
59493;BME280;45497;43.996;22.876;2023-02-20T06:23:38;101871.94;;;9.55;43.91
59493;BME280;45497;43.996;22.876;2023-02-20T06:26:05;101891.50;;;9.74;43.38
59493;BME280;45497;43.996;22.876;2023-02-20T06:28:31;101888.28;;;9.61;43.15
59493;BME280;45497;43.996;22.876;2023-02-20T06:30:56;101894.50;;;9.50;43.58
59493;BME280;45497;43.996;22.876;2023-02-20T06:33:22;101900.84;;;9.37;43.56
59493;BME280;45497;43.996;22.876;2023-02-20T06:35:47;101911.19;;;9.41;43.81
59493;BME280;45497;43.996;22.876;2023-02-20T06:38:13;101920.16;;;9.49;43.61
59493;BME280;45497;43.996;22.876;2023-02-20T06:40:39;101921.72;;;9.62;43.51
59493;BME280;45497;43.996;22.876;2023-02-20T06:43:04;101935.59;;;9.54;43.71
59493;BME280;45497;43.996;22.876;2023-02-20T06:45:30;101932.09;;;9.44;43.55
59493;BME280;45497;43.996;22.876;2023-02-20T06:47:55;101939.13;;;9.54;43.06
59493;BME280;45497;43.996;22.876;2023-02-20T06:50:21;101934.75;;;9.44;43.10
59493;BME280;45497;43.996;22.876;2023-02-20T06:52:47;101931.56;;;9.50;43.26
59493;BME280;45497;43.996;22.876;2023-02-20T06:55:12;101937.31;;;9.65;43.14
59493;BME280;45497;43.996;22.876;2023-02-20T06:57:38;101931.44;;;9.51;42.85
59493;BME280;45497;43.996;22.876;2023-02-20T07:00:04;101929.84;;;9.39;42.65
59493;BME280;45497;43.996;22.876;2023-02-20T07:02:30;101929.75;;;9.50;42.49
59493;BME280;45497;43.996;22.876;2023-02-20T07:04:55;101924.38;;;9.62;41.95
59493;BME280;45497;43.996;22.876;2023-02-20T07:07:21;101928.88;;;9.40;41.55
59493;BME280;45497;43.996;22.876;2023-02-20T07:09:46;101930.66;;;9.40;42.14
59493;BME280;45497;43.996;22.876;2023-02-20T07:12:12;101933.19;;;9.41;42.19
59493;BME280;45497;43.996;22.876;2023-02-20T07:14:37;101936.31;;;9.56;41.83
59493;BME280;45497;43.996;22.876;2023-02-20T07:17:03;101933.84;;;9.64;41.33
59493;BME280;45497;43.996;22.876;2023-02-20T07:19:28;101942.22;;;9.69;41.13
59493;BME280;45497;43.996;22.876;2023-02-20T07:21:54;101945.84;;;9.68;40.79
59493;BME280;45497;43.996;22.876;2023-02-20T07:24:19;101940.75;;;9.86;40.83
59493;BME280;45497;43.996;22.876;2023-02-20T07:26:44;101930.63;;;10.01;40.74
59493;BME280;45497;43.996;22.876;2023-02-20T07:29:12;101942.31;;;9.99;40.73
59493;BME280;45497;43.996;22.876;2023-02-20T07:31:37;101942.75;;;9.94;40.29
59493;BME280;45497;43.996;22.876;2023-02-20T07:34:03;101934.34;;;9.89;40.25
59493;BME280;45497;43.996;22.876;2023-02-20T07:36:29;101948.25;;;9.81;40.43
59493;BME280;45497;43.996;22.876;2023-02-20T07:38:56;101939.09;;;9.85;40.15
59493;BME280;45497;43.996;22.876;2023-02-20T07:41:23;101951.81;;;10.01;40.31
59493;BME280;45497;43.996;22.876;2023-02-20T07:43:49;101945.94;;;9.98;39.55
59493;BME280;45497;43.996;22.876;2023-02-20T07:46:15;101948.47;;;10.09;39.13
59493;BME280;45497;43.996;22.876;2023-02-20T07:48:40;101964.44;;;10.38;38.21
59493;BME280;45497;43.996;22.876;2023-02-20T07:51:06;101967.69;;;10.51;37.96
59493;BME280;45497;43.996;22.876;2023-02-20T07:53:31;101956.16;;;10.22;37.35
59493;BME280;45497;43.996;22.876;2023-02-20T07:55:57;101964.16;;;10.31;37.19
59493;BME280;45497;43.996;22.876;2023-02-20T07:58:22;101962.38;;;10.51;36.95
59493;BME280;45497;43.996;22.876;2023-02-20T08:00:49;101959.97;;;10.39;36.93
59493;BME280;45497;43.996;22.876;2023-02-20T08:03:18;101964.75;;;10.55;37.34
59493;BME280;45497;43.996;22.876;2023-02-20T08:05:44;101960.69;;;10.60;36.14
59493;BME280;45497;43.996;22.876;2023-02-20T08:08:10;101981.38;;;10.66;35.05
59493;BME280;45497;43.996;22.876;2023-02-20T08:10:35;101977.31;;;10.43;35.76
59493;BME280;45497;43.996;22.876;2023-02-20T08:13:01;101988.22;;;10.79;34.53
59493;BME280;45497;43.996;22.876;2023-02-20T08:15:27;101982.19;;;11.06;33.82
59493;BME280;45497;43.996;22.876;2023-02-20T08:17:53;101989.13;;;11.26;33.67
59493;BME280;45497;43.996;22.876;2023-02-20T08:20:19;101985.59;;;11.36;32.81
59493;BME280;45497;43.996;22.876;2023-02-20T08:22:46;101989.28;;;11.62;32.63
59493;BME280;45497;43.996;22.876;2023-02-20T08:25:13;101980.50;;;11.52;32.32
59493;BME280;45497;43.996;22.876;2023-02-20T08:27:44;102010.34;;;11.26;32.55
59493;BME280;45497;43.996;22.876;2023-02-20T08:30:16;102025.75;;;10.94;32.87
59493;BME280;45497;43.996;22.876;2023-02-20T08:32:42;102005.47;;;11.12;32.87
59493;BME280;45497;43.996;22.876;2023-02-20T08:35:07;102021.97;;;11.25;31.96
59493;BME280;45497;43.996;22.876;2023-02-20T08:37:32;102017.41;;;11.55;32.63
59493;BME280;45497;43.996;22.876;2023-02-20T08:39:58;102011.16;;;11.84;32.22
59493;BME280;45497;43.996;22.876;2023-02-20T08:42:24;102015.84;;;11.72;31.44
59493;BME280;45497;43.996;22.876;2023-02-20T08:44:49;102005.56;;;11.87;31.70
59493;BME280;45497;43.996;22.876;2023-02-20T08:47:18;102005.81;;;11.94;31.18
59493;BME280;45497;43.996;22.876;2023-02-20T08:49:46;102010.41;;;12.01;30.61
59493;BME280;45497;43.996;22.876;2023-02-20T08:52:12;102012.00;;;11.94;30.99
59493;BME280;45497;43.996;22.876;2023-02-20T08:54:38;102001.56;;;11.73;30.97
59493;BME280;45497;43.996;22.876;2023-02-20T08:57:03;102000.13;;;12.16;30.87
59493;BME280;45497;43.996;22.876;2023-02-20T08:59:32;101997.50;;;12.34;30.74
59493;BME280;45497;43.996;22.876;2023-02-20T09:01:57;102000.31;;;12.51;30.90
59493;BME280;45497;43.996;22.876;2023-02-20T09:04:23;101992.59;;;12.30;30.88
59493;BME280;45497;43.996;22.876;2023-02-20T09:06:48;101981.94;;;12.39;30.50
59493;BME280;45497;43.996;22.876;2023-02-20T09:09:14;101986.06;;;12.24;30.55
59493;BME280;45497;43.996;22.876;2023-02-20T09:11:39;101981.63;;;12.24;30.14
59493;BME280;45497;43.996;22.876;2023-02-20T09:14:05;101982.59;;;12.41;29.68
59493;BME280;45497;43.996;22.876;2023-02-20T09:16:30;101985.28;;;12.41;29.46
59493;BME280;45497;43.996;22.876;2023-02-20T09:18:56;101989.06;;;12.39;29.57
59493;BME280;45497;43.996;22.876;2023-02-20T09:21:21;101991.94;;;12.28;29.75
59493;BME280;45497;43.996;22.876;2023-02-20T09:23:47;102000.75;;;12.28;29.66
59493;BME280;45497;43.996;22.876;2023-02-20T09:26:12;101984.75;;;12.56;29.79
59493;BME280;45497;43.996;22.876;2023-02-20T09:28:38;101975.56;;;12.68;29.08
59493;BME280;45497;43.996;22.876;2023-02-20T09:31:05;101984.34;;;12.33;29.51
59493;BME280;45497;43.996;22.876;2023-02-20T09:33:30;101981.63;;;12.78;29.91
59493;BME280;45497;43.996;22.876;2023-02-20T09:35:56;101983.25;;;12.53;29.40
59493;BME280;45497;43.996;22.876;2023-02-20T09:38:22;101982.16;;;12.28;29.19
59493;BME280;45497;43.996;22.876;2023-02-20T09:40:54;101974.31;;;12.27;29.38
59493;BME280;45497;43.996;22.876;2023-02-20T09:46:12;101977.59;;;12.38;29.64
59493;BME280;45497;43.996;22.876;2023-02-20T09:51:13;101965.28;;;12.37;29.30
59493;BME280;45497;43.996;22.876;2023-02-20T09:54:02;101963.34;;;11.84;30.66
59493;BME280;45497;43.996;22.876;2023-02-20T09:56:29;101970.69;;;12.00;30.25
59493;BME280;45497;43.996;22.876;2023-02-20T10:01:27;101978.66;;;12.00;29.85
59493;BME280;45497;43.996;22.876;2023-02-20T10:04:18;101973.78;;;12.23;29.62
59493;BME280;45497;43.996;22.876;2023-02-20T10:06:45;101963.94;;;12.05;29.24
59493;BME280;45497;43.996;22.876;2023-02-20T10:09:14;101976.94;;;12.09;28.78
59493;BME280;45497;43.996;22.876;2023-02-20T10:15:06;101982.75;;;11.84;27.47
59493;BME280;45497;43.996;22.876;2023-02-20T10:18:55;101993.03;;;11.79;27.91
59493;BME280;45497;43.996;22.876;2023-02-20T10:23:52;101983.13;;;12.27;27.45
59493;BME280;45497;43.996;22.876;2023-02-20T10:26:33;101989.41;;;12.26;27.51
59493;BME280;45497;43.996;22.876;2023-02-20T10:29:14;101988.28;;;12.29;27.13
59493;BME280;45497;43.996;22.876;2023-02-20T10:31:44;101989.78;;;12.59;27.19
59493;BME280;45497;43.996;22.876;2023-02-20T10:34:15;101989.09;;;12.75;26.93
59493;BME280;45497;43.996;22.876;2023-02-20T10:36:50;101980.75;;;12.96;26.77
59493;BME280;45497;43.996;22.876;2023-02-20T10:39:19;101991.28;;;12.79;25.98
59493;BME280;45497;43.996;22.876;2023-02-20T10:44:18;101980.34;;;13.09;25.35
59493;BME280;45497;43.996;22.876;2023-02-20T10:49:30;101983.97;;;13.44;24.43
59493;BME280;45497;43.996;22.876;2023-02-20T10:51:59;101963.06;;;12.87;24.05
59493;BME280;45497;43.996;22.876;2023-02-20T10:54:40;101990.59;;;12.77;23.71
59493;BME280;45497;43.996;22.876;2023-02-20T10:57:31;101981.81;;;13.03;24.35
59493;BME280;45497;43.996;22.876;2023-02-20T11:00:05;101979.75;;;13.41;24.48
59493;BME280;45497;43.996;22.876;2023-02-20T11:02:36;101989.59;;;13.23;24.61
59493;BME280;45497;43.996;22.876;2023-02-20T11:05:12;102001.88;;;13.15;24.09
59493;BME280;45497;43.996;22.876;2023-02-20T11:07:41;101970.78;;;13.42;24.09
59493;BME280;45497;43.996;22.876;2023-02-20T11:10:07;101982.94;;;13.45;24.55
59493;BME280;45497;43.996;22.876;2023-02-20T11:12:40;101981.91;;;13.37;24.31
59493;BME280;45497;43.996;22.876;2023-02-20T11:15:20;101977.00;;;13.51;24.00
59493;BME280;45497;43.996;22.876;2023-02-20T11:17:51;101981.53;;;13.32;23.75
59493;BME280;45497;43.996;22.876;2023-02-20T11:23:01;101970.41;;;13.11;23.90
59493;BME280;45497;43.996;22.876;2023-02-20T11:25:33;101962.00;;;13.50;23.53
59493;BME280;45497;43.996;22.876;2023-02-20T11:28:16;101941.81;;;13.39;23.05
59493;BME280;45497;43.996;22.876;2023-02-20T11:30:46;101957.13;;;13.19;23.58
59493;BME280;45497;43.996;22.876;2023-02-20T11:33:14;101948.03;;;13.30;23.75
59493;BME280;45497;43.996;22.876;2023-02-20T11:35:43;101955.28;;;13.72;23.06
59493;BME280;45497;43.996;22.876;2023-02-20T11:38:26;101954.69;;;13.26;23.49
59493;BME280;45497;43.996;22.876;2023-02-20T11:45:46;101914.81;;;13.08;23.69
59493;BME280;45497;43.996;22.876;2023-02-20T11:48:12;101919.72;;;13.29;23.92
59493;BME280;45497;43.996;22.876;2023-02-20T11:50:42;101907.28;;;13.29;24.26
59493;BME280;45497;43.996;22.876;2023-02-20T11:53:23;101915.09;;;13.57;24.32
59493;BME280;45497;43.996;22.876;2023-02-20T11:58:30;101902.59;;;13.57;24.56
59493;BME280;45497;43.996;22.876;2023-02-20T12:00:56;101908.25;;;13.54;24.39
59493;BME280;45497;43.996;22.876;2023-02-20T12:03:24;101905.25;;;13.57;24.34
59493;BME280;45497;43.996;22.876;2023-02-20T12:05:52;101914.25;;;13.56;25.11
59493;BME280;45497;43.996;22.876;2023-02-20T12:11:14;101882.91;;;13.50;25.23
59493;BME280;45497;43.996;22.876;2023-02-20T12:13:46;101889.31;;;13.66;25.19
59493;BME280;45497;43.996;22.876;2023-02-20T12:16:24;101904.41;;;13.49;25.79
59493;BME280;45497;43.996;22.876;2023-02-20T12:24:42;101892.59;;;13.51;27.66
59493;BME280;45497;43.996;22.876;2023-02-20T12:40:43;101906.16;;;13.83;27.62
59493;BME280;45497;43.996;22.876;2023-02-20T12:46:27;101907.59;;;13.52;29.03
59493;BME280;45497;43.996;22.876;2023-02-20T12:52:23;101899.22;;;13.98;28.71
59493;BME280;45497;43.996;22.876;2023-02-20T12:54:46;101904.44;;;14.32;28.17
59493;BME280;45497;43.996;22.876;2023-02-20T12:57:44;101907.25;;;14.14;28.10
59493;BME280;45497;43.996;22.876;2023-02-20T13:02:54;101926.06;;;13.54;29.24
59493;BME280;45497;43.996;22.876;2023-02-20T13:05:24;101901.19;;;13.37;29.51
59493;BME280;45497;43.996;22.876;2023-02-20T13:08:13;101918.41;;;13.51;29.43
59493;BME280;45497;43.996;22.876;2023-02-20T13:11:07;101909.56;;;13.24;30.07
59493;BME280;45497;43.996;22.876;2023-02-20T13:13:41;101891.41;;;13.19;30.26
59493;BME280;45497;43.996;22.876;2023-02-20T13:16:18;101890.91;;;13.50;30.32
59493;BME280;45497;43.996;22.876;2023-02-20T13:19:05;101897.97;;;13.68;30.23
59493;BME280;45497;43.996;22.876;2023-02-20T13:21:34;101895.19;;;13.77;30.19
59493;BME280;45497;43.996;22.876;2023-02-20T13:24:26;101908.31;;;13.79;30.29
59493;BME280;45497;43.996;22.876;2023-02-20T13:26:58;101897.88;;;13.17;30.98
59493;BME280;45497;43.996;22.876;2023-02-20T13:29:34;101919.56;;;13.22;31.21
59493;BME280;45497;43.996;22.876;2023-02-20T13:34:41;101915.84;;;13.41;30.73
59493;BME280;45497;43.996;22.876;2023-02-20T13:43:18;101909.22;;;13.45;30.63
59493;BME280;45497;43.996;22.876;2023-02-20T13:56:22;101903.69;;;13.81;30.25
59493;BME280;45497;43.996;22.876;2023-02-20T13:58:49;101916.72;;;13.50;30.45
59493;BME280;45497;43.996;22.876;2023-02-20T14:01:16;101912.16;;;13.08;30.97
59493;BME280;45497;43.996;22.876;2023-02-20T14:03:42;101916.53;;;13.17;31.00
59493;BME280;45497;43.996;22.876;2023-02-20T14:06:13;101913.16;;;13.33;30.52
59493;BME280;45497;43.996;22.876;2023-02-20T14:08:47;101907.72;;;13.25;30.88
59493;BME280;45497;43.996;22.876;2023-02-20T14:11:31;101923.25;;;13.29;31.00
59493;BME280;45497;43.996;22.876;2023-02-20T14:14:05;101923.41;;;13.28;31.25
59493;BME280;45497;43.996;22.876;2023-02-20T14:16:35;101930.59;;;13.62;30.75
59493;BME280;45497;43.996;22.876;2023-02-20T14:19:24;101921.41;;;13.30;31.66
59493;BME280;45497;43.996;22.876;2023-02-20T14:21:50;101931.38;;;13.54;31.33
59493;BME280;45497;43.996;22.876;2023-02-20T14:26:47;101927.50;;;13.83;30.85
59493;BME280;45497;43.996;22.876;2023-02-20T14:29:42;101923.75;;;13.59;31.18
59493;BME280;45497;43.996;22.876;2023-02-20T14:32:11;101919.34;;;13.42;31.53
59493;BME280;45497;43.996;22.876;2023-02-20T14:34:58;101933.09;;;13.63;31.37
59493;BME280;45497;43.996;22.876;2023-02-20T14:37:38;101926.66;;;13.74;31.02
59493;BME280;45497;43.996;22.876;2023-02-20T14:40:39;101919.97;;;13.35;31.86
59493;BME280;45497;43.996;22.876;2023-02-20T14:43:26;101930.41;;;13.55;31.47